Time;durP1;ratioP1;P1;durP2;ratioP2;P2;SDS_P1;SDS_P2;PMS_P1;PMS_P2;Temp;Humidity;BMP_temperature;BMP_pressure;BME280_temperature;BME280_humidity;BME280_pressure;Samples;Min_cycle;Max_cycle;Signal;HPM_P1;HPM_P2
2021/11/05 00:01:48;;;;;;;4.03;2.22;;;4.80;98.00;;;;;;6221826;23;20016;-78
2021/11/05 00:04:15;;;;;;;3.03;1.70;;;4.80;98.00;;;;;;6221898;23;20010;-78
2021/11/05 00:06:41;;;;;;;4.10;2.00;;;4.80;98.00;;;;;;6247948;23;20015;-79
2021/11/05 00:09:07;;;;;;;5.78;2.53;;;4.80;98.00;;;;;;6248618;23;20004;-77
2021/11/05 00:11:33;;;;;;;3.38;1.90;;;4.70;98.00;;;;;;6220575;23;20031;-79
2021/11/05 00:13:58;;;;;;;3.88;1.90;;;4.70;98.00;;;;;;6248825;23;20046;-80
2021/11/05 00:16:24;;;;;;;4.20;2.40;;;4.70;98.00;;;;;;6247615;23;20078;-80
2021/11/05 00:18:50;;;;;;;5.00;2.38;;;4.70;98.00;;;;;;6246860;23;20011;-78
2021/11/05 00:21:16;;;;;;;4.63;2.40;;;4.60;98.00;;;;;;6221462;23;20012;-78
2021/11/05 00:23:41;;;;;;;4.80;2.00;;;4.60;98.00;;;;;;6248645;23;20362;-79
2021/11/05 00:26:07;;;;;;;5.22;2.30;;;4.60;98.00;;;;;;6243800;23;20019;-79
2021/11/05 00:28:33;;;;;;;4.50;2.20;;;4.50;98.00;;;;;;6245919;23;20009;-80
2021/11/05 00:30:58;;;;;;;4.38;2.22;;;4.50;98.00;;;;;;6247853;23;19992;-79
2021/11/05 00:33:24;;;;;;;4.22;2.20;;;4.50;98.00;;;;;;6248625;23;20045;-80
2021/11/05 00:35:50;;;;;;;4.95;2.45;;;4.40;98.00;;;;;;6246292;23;20022;-79
2021/11/05 00:38:15;;;;;;;3.72;2.28;;;4.40;98.00;;;;;;6247331;23;20004;-78
2021/11/05 00:40:41;;;;;;;3.58;2.17;;;4.30;98.00;;;;;;6245700;23;20000;-78
2021/11/05 00:43:07;;;;;;;4.90;2.70;;;4.30;98.00;;;;;;6244885;23;20348;-79
2021/11/05 00:45:33;;;;;;;5.57;2.40;;;4.20;98.00;;;;;;6243911;23;20075;-78
2021/11/05 00:47:59;;;;;;;4.15;2.00;;;4.20;98.00;;;;;;6245850;23;20004;-79
2021/11/05 00:50:25;;;;;;;4.38;2.30;;;4.10;98.00;;;;;;6247990;23;20032;-78
2021/11/05 00:52:51;;;;;;;4.18;2.30;;;4.00;98.00;;;;;;6245635;23;20365;-78
2021/11/05 00:55:17;;;;;;;5.00;2.35;;;4.10;98.00;;;;;;6245257;23;20686;-79
2021/11/05 00:57:43;;;;;;;4.07;2.30;;;4.10;98.00;;;;;;6243348;23;20000;-79
2021/11/05 01:00:14;;;;;;;9.40;5.82;;;4.10;98.00;;;;;;6245971;23;20099;-79
2021/11/05 01:02:40;;;;;;;5.55;2.78;;;4.20;98.00;;;;;;6218610;23;20007;-79
2021/11/05 01:05:07;;;;;;;3.83;2.42;;;4.30;98.00;;;;;;6219399;23;20011;-80
2021/11/05 01:07:33;;;;;;;4.05;2.03;;;4.30;98.00;;;;;;6218732;23;20087;-80
2021/11/05 01:09:59;;;;;;;3.95;2.15;;;4.30;98.00;;;;;;6246846;23;20090;-80
2021/11/05 01:12:24;;;;;;;5.55;2.50;;;4.40;98.00;;;;;;6245469;23;20012;-79
2021/11/05 01:14:51;;;;;;;4.32;2.13;;;4.40;98.00;;;;;;6248065;23;20008;-79
2021/11/05 01:17:17;;;;;;;4.68;2.50;;;4.40;98.00;;;;;;6247579;23;20075;-79
2021/11/05 01:19:43;;;;;;;4.75;2.70;;;4.40;98.00;;;;;;6247711;23;20570;-79
2021/11/05 01:22:12;;;;;;;5.20;2.78;;;4.40;98.00;;;;;;6220646;23;20078;-79
2021/11/05 01:24:38;;;;;;;4.45;2.92;;;4.30;98.00;;;;;;6220384;23;20004;-78
2021/11/05 01:27:04;;;;;;;4.43;2.67;;;4.40;98.00;;;;;;6245888;23;20008;-79
2021/11/05 01:29:29;;;;;;;4.00;2.30;;;4.50;98.00;;;;;;6247317;23;20024;-79
2021/11/05 01:31:56;;;;;;;4.05;2.40;;;4.50;98.00;;;;;;6247621;23;20262;-79
2021/11/05 01:34:22;;;;;;;6.90;4.90;;;4.50;98.00;;;;;;6247647;23;20007;-78
2021/11/05 01:36:48;;;;;;;5.30;2.72;;;4.50;98.00;;;;;;6247439;23;20023;-79
2021/11/05 01:39:15;;;;;;;4.65;2.45;;;4.50;98.00;;;;;;6247494;23;20004;-79
2021/11/05 01:41:42;;;;;;;4.78;2.70;;;4.50;98.00;;;;;;6245927;23;20034;-80
2021/11/05 01:44:08;;;;;;;4.40;2.72;;;4.60;98.00;;;;;;6220866;23;20010;-79
2021/11/05 01:46:40;;;;;;;5.15;2.65;;;4.60;98.00;;;;;;6247739;23;20004;-79
2021/11/05 01:49:07;;;;;;;5.60;3.20;;;4.60;98.00;;;;;;6247334;23;20000;-79
2021/11/05 01:51:34;;;;;;;4.68;2.90;;;4.60;98.00;;;;;;6220769;23;20507;-80
2021/11/05 01:54:00;;;;;;;6.15;3.60;;;4.50;98.00;;;;;;6247763;23;20046;-79
2021/11/05 01:56:25;;;;;;;6.60;3.78;;;4.50;98.00;;;;;;6245810;23;20000;-79
2021/11/05 01:58:51;;;;;;;5.68;3.67;;;4.40;98.00;;;;;;6249713;23;20621;-79
2021/11/05 02:01:16;;;;;;;6.70;3.65;;;4.50;98.00;;;;;;6249454;23;20420;-80
2021/11/05 02:03:42;;;;;;;6.40;3.78;;;4.40;98.00;;;;;;6249255;23;20004;-79
2021/11/05 02:06:08;;;;;;;6.57;3.92;;;4.40;98.00;;;;;;6249241;23;20031;-79
2021/11/05 02:08:35;;;;;;;5.50;3.67;;;4.40;98.00;;;;;;6249313;23;20004;-79
2021/11/05 02:11:03;;;;;;;5.28;3.15;;;4.40;98.00;;;;;;6248180;23;20000;-79
2021/11/05 02:13:32;;;;;;;4.63;2.90;;;4.50;98.00;;;;;;6249299;23;20004;-79
2021/11/05 02:15:59;;;;;;;4.65;2.75;;;4.50;98.00;;;;;;6222896;23;20011;-79
2021/11/05 02:18:25;;;;;;;6.35;2.42;;;4.50;98.00;;;;;;6249486;23;20008;-79
2021/11/05 02:20:55;;;;;;;4.47;2.90;;;4.50;98.00;;;;;;6248995;23;20058;-79
2021/11/05 02:23:23;;;;;;;4.97;2.70;;;4.50;98.00;;;;;;6249349;23;20007;-79
2021/11/05 02:25:48;;;;;;;4.72;2.53;;;4.50;98.00;;;;;;6247718;23;20008;-79
2021/11/05 02:28:14;;;;;;;5.97;3.30;;;4.50;98.00;;;;;;6249115;23;20585;-80
2021/11/05 02:30:40;;;;;;;5.65;3.30;;;4.50;98.00;;;;;;6249271;23;19992;-80
2021/11/05 02:33:06;;;;;;;4.72;2.75;;;4.50;98.00;;;;;;6249285;23;20004;-79
2021/11/05 02:35:32;;;;;;;5.32;3.15;;;4.50;98.00;;;;;;6222507;23;20451;-80
2021/11/05 02:37:58;;;;;;;5.43;3.20;;;4.40;98.00;;;;;;6249106;23;20067;-79
2021/11/05 02:40:24;;;;;;;5.10;2.90;;;4.40;98.00;;;;;;6247453;23;20301;-79
2021/11/05 02:42:49;;;;;;;5.38;2.88;;;4.40;98.00;;;;;;6249341;23;19999;-79
2021/11/05 02:45:15;;;;;;;3.83;2.38;;;4.40;98.00;;;;;;6248777;23;20000;-79
2021/11/05 02:47:41;;;;;;;4.88;2.90;;;4.40;98.00;;;;;;6249475;23;19996;-79
2021/11/05 02:50:11;;;;;;;5.15;3.08;;;4.40;98.00;;;;;;6248604;23;20000;-79
2021/11/05 02:52:37;;;;;;;4.70;2.85;;;4.40;98.00;;;;;;6221834;23;20012;-79
2021/11/05 02:55:04;;;;;;;5.05;3.08;;;4.30;98.00;;;;;;6222565;23;20004;-79
2021/11/05 02:57:30;;;;;;;5.43;2.90;;;4.20;98.00;;;;;;6221340;23;20006;-79
2021/11/05 02:59:56;;;;;;;4.97;3.13;;;4.10;98.00;;;;;;6248754;23;20031;-79
2021/11/05 03:02:25;;;;;;;6.43;3.30;;;4.10;98.00;;;;;;6249053;23;20080;-80
2021/11/05 03:04:52;;;;;;;5.63;3.15;;;3.90;98.00;;;;;;6248927;23;20362;-79
2021/11/05 03:07:18;;;;;;;5.07;3.28;;;3.90;98.00;;;;;;6221799;23;20045;-79
2021/11/05 03:09:44;;;;;;;6.82;3.78;;;3.80;98.00;;;;;;6248733;23;20569;-79
2021/11/05 03:12:11;;;;;;;4.72;3.03;;;3.70;98.00;;;;;;6247587;23;20070;-79
2021/11/05 03:14:38;;;;;;;6.07;3.05;;;3.70;98.00;;;;;;6248916;23;20000;-80
2021/11/05 03:17:06;;;;;;;4.30;2.60;;;3.70;98.00;;;;;;6248640;23;20015;-80
2021/11/05 03:19:32;;;;;;;5.07;2.95;;;3.70;98.00;;;;;;6222448;23;20054;-79
2021/11/05 03:21:59;;;;;;;4.22;2.40;;;3.60;98.00;;;;;;6248383;23;20270;-80
2021/11/05 03:24:25;;;;;;;4.18;2.45;;;3.50;98.00;;;;;;6222370;23;20012;-79
2021/11/05 03:26:51;;;;;;;4.03;2.35;;;3.50;98.00;;;;;;6220872;23;20277;-78
2021/11/05 03:29:17;;;;;;;3.78;2.22;;;3.40;98.00;;;;;;6248507;23;20035;-79
2021/11/05 03:31:42;;;;;;;4.10;2.20;;;3.40;98.00;;;;;;6248767;23;20000;-79
2021/11/05 03:34:09;;;;;;;2.97;1.90;;;3.40;98.00;;;;;;6222402;23;20000;-80
2021/11/05 03:36:35;;;;;;;3.72;2.22;;;3.40;98.00;;;;;;6221807;23;20008;-79
2021/11/05 03:39:02;;;;;;;4.30;2.28;;;3.40;98.00;;;;;;6248941;23;20004;-79
2021/11/05 03:41:28;;;;;;;3.88;2.17;;;3.50;98.00;;;;;;6247209;23;20337;-77
2021/11/05 03:43:53;;;;;;;3.95;2.25;;;3.60;98.00;;;;;;6248768;23;20008;-77
2021/11/05 03:46:19;;;;;;;3.58;2.00;;;3.60;98.00;;;;;;6221591;23;20004;-77
2021/11/05 03:48:45;;;;;;;3.00;1.85;;;3.70;98.00;;;;;;6221694;23;20065;-77
2021/11/05 03:51:11;;;;;;;3.50;1.83;;;3.80;98.00;;;;;;6221086;23;20058;-77
2021/11/05 03:53:37;;;;;;;4.45;2.08;;;3.80;98.00;;;;;;6248398;23;20052;-81
2021/11/05 03:56:04;;;;;;;3.60;2.13;;;3.90;98.00;;;;;;6220336;23;20006;-78
2021/11/05 03:58:29;;;;;;;3.30;1.80;;;3.90;98.00;;;;;;6248187;23;20000;-78
2021/11/05 04:00:55;;;;;;;3.60;1.90;;;4.00;98.00;;;;;;6248219;23;20000;-79
2021/11/05 04:03:21;;;;;;;3.63;1.88;;;4.00;98.00;;;;;;6248795;23;20075;-77
2021/11/05 04:05:47;;;;;;;2.95;1.52;;;4.10;98.00;;;;;;6247538;23;20372;-79
2021/11/05 04:08:16;;;;;;;2.40;1.50;;;4.10;98.00;;;;;;6248565;23;20035;-79
2021/11/05 04:10:42;;;;;;;4.30;1.80;;;4.20;98.00;;;;;;6246570;23;20000;-78
2021/11/05 04:13:08;;;;;;;3.53;1.50;;;4.30;98.00;;;;;;6248250;23;20095;-78
2021/11/05 04:15:33;;;;;;;3.60;2.40;;;4.30;98.00;;;;;;6222991;23;20593;-77
2021/11/05 04:17:59;;;;;;;3.08;1.80;;;4.40;98.00;;;;;;6248829;23;19996;-78
2021/11/05 04:20:25;;;;;;;2.78;1.48;;;4.50;98.00;;;;;;6248347;23;20072;-78
2021/11/05 04:22:51;;;;;;;2.95;1.45;;;4.50;98.00;;;;;;6248786;23;20000;-79
2021/11/05 04:25:17;;;;;;;3.55;1.70;;;4.50;98.00;;;;;;6247423;23;20027;-78
2021/11/05 04:27:42;;;;;;;2.88;1.60;;;4.60;98.00;;;;;;6247824;23;20030;-80
2021/11/05 04:30:11;;;;;;;3.50;1.40;;;4.60;98.00;;;;;;6247492;23;20004;-78
2021/11/05 04:32:37;;;;;;;3.35;1.60;;;4.50;98.00;;;;;;6248094;23;19996;-78
2021/11/05 04:35:03;;;;;;;4.05;1.55;;;4.60;98.00;;;;;;6247757;23;20384;-79
2021/11/05 04:37:29;;;;;;;2.78;1.50;;;4.60;98.00;;;;;;6248072;23;20050;-78
2021/11/05 04:39:54;;;;;;;3.38;1.70;;;4.60;98.00;;;;;;6247910;23;20012;-78
2021/11/05 04:42:20;;;;;;;3.97;1.80;;;4.60;98.00;;;;;;6246668;23;20000;-78
2021/11/05 04:44:45;;;;;;;3.97;1.90;;;4.60;98.00;;;;;;6247919;23;20000;-78
2021/11/05 04:47:11;;;;;;;3.67;2.00;;;4.60;98.00;;;;;;6247971;23;20012;-78
2021/11/05 04:49:37;;;;;;;5.20;2.83;;;4.70;98.00;;;;;;6247705;23;19996;-78
2021/11/05 04:52:03;;;;;;;4.07;1.88;;;4.70;98.00;;;;;;6248137;23;20044;-79
2021/11/05 04:54:28;;;;;;;3.55;1.90;;;4.70;98.00;;;;;;6247320;23;20000;-78
2021/11/05 04:56:54;;;;;;;5.47;2.50;;;4.60;98.00;;;;;;6246651;23;20054;-79
2021/11/05 04:59:20;;;;;;;4.55;2.10;;;4.60;98.00;;;;;;6247426;23;20007;-81
2021/11/05 05:01:47;;;;;;;3.70;2.13;;;4.40;98.00;;;;;;6247520;23;20054;-79
2021/11/05 05:04:13;;;;;;;3.35;2.03;;;4.30;98.00;;;;;;6247592;23;19997;-79
2021/11/05 05:06:39;;;;;;;4.57;1.98;;;4.30;98.00;;;;;;6247833;22;20157;-79
2021/11/05 05:09:05;;;;;;;4.97;2.03;;;4.30;98.00;;;;;;6247627;23;20062;-79
2021/11/05 05:11:31;;;;;;;3.72;1.90;;;4.30;98.00;;;;;;6219905;23;20008;-79
2021/11/05 05:13:57;;;;;;;4.22;1.77;;;4.30;98.00;;;;;;6247585;23;20262;-79
2021/11/05 05:16:22;;;;;;;2.72;1.40;;;4.30;98.00;;;;;;6247596;23;20008;-79
2021/11/05 05:18:48;;;;;;;3.17;1.75;;;4.20;98.00;;;;;;6247606;23;20059;-78
2021/11/05 05:21:14;;;;;;;3.13;1.75;;;4.30;98.00;;;;;;6247679;23;20012;-79
2021/11/05 05:23:40;;;;;;;2.75;1.55;;;4.30;98.00;;;;;;6247313;23;20127;-78
2021/11/05 05:26:06;;;;;;;2.60;1.42;;;4.30;98.00;;;;;;6245936;23;20266;-79
2021/11/05 05:28:33;;;;;;;2.50;1.60;;;4.40;98.00;;;;;;6247092;23;20373;-79
2021/11/05 05:31:01;;;;;;;4.25;1.85;;;4.40;98.00;;;;;;6246947;23;20016;-79
2021/11/05 05:33:27;;;;;;;3.60;1.88;;;4.40;98.00;;;;;;6247291;23;20072;-79
2021/11/05 05:35:53;;;;;;;2.97;1.70;;;4.40;98.00;;;;;;6220677;23;20028;-79
2021/11/05 05:38:18;;;;;;;3.05;1.67;;;4.50;98.00;;;;;;6221191;23;20377;-79
2021/11/05 05:40:44;;;;;;;4.68;2.30;;;4.50;98.00;;;;;;6219381;23;20532;-78
2021/11/05 05:43:10;;;;;;;4.95;2.85;;;4.50;98.00;;;;;;6247437;23;20001;-79
2021/11/05 05:45:35;;;;;;;4.40;2.25;;;4.50;98.00;;;;;;6247695;23;20419;-79
2021/11/05 05:48:01;;;;;;;4.20;2.25;;;4.40;98.00;;;;;;6247228;23;20003;-79
2021/11/05 05:50:28;;;;;;;4.85;2.95;;;4.40;98.00;;;;;;6220166;23;20008;-80
2021/11/05 05:52:53;;;;;;;4.68;2.40;;;4.30;98.00;;;;;;6247250;23;20004;-79
2021/11/05 05:55:19;;;;;;;5.70;2.67;;;4.30;98.00;;;;;;6245828;23;20294;-80
2021/11/05 05:57:45;;;;;;;4.50;2.25;;;4.20;98.00;;;;;;6247358;23;19996;-80
2021/11/05 06:00:14;;;;;;;3.60;1.90;;;4.10;98.00;;;;;;6220476;23;20032;-80
2021/11/05 06:02:40;;;;;;;3.97;1.80;;;4.10;98.00;;;;;;6247199;23;20401;-80
2021/11/05 06:05:06;;;;;;;3.65;1.83;;;4.00;98.00;;;;;;6247708;23;20000;-80
2021/11/05 06:07:32;;;;;;;3.53;2.05;;;4.00;98.00;;;;;;6247336;23;20012;-82
2021/11/05 06:09:57;;;;;;;3.40;1.98;;;4.00;98.00;;;;;;6247183;23;20014;-79
2021/11/05 06:12:23;;;;;;;3.97;1.90;;;3.90;98.00;;;;;;6245897;23;20023;-80
2021/11/05 06:14:49;;;;;;;3.72;2.00;;;3.90;98.00;;;;;;6247330;23;20000;-79
2021/11/05 06:17:15;;;;;;;4.30;2.10;;;3.90;98.00;;;;;;6220347;23;20107;-80
2021/11/05 06:19:42;;;;;;;3.33;1.90;;;3.90;98.00;;;;;;6247075;23;20000;-80
2021/11/05 06:22:07;;;;;;;3.78;2.20;;;3.90;98.00;;;;;;6247146;23;20031;-80
2021/11/05 06:24:33;;;;;;;3.88;2.45;;;3.80;98.00;;;;;;6247215;23;20001;-82
2021/11/05 06:26:59;;;;;;;3.65;2.15;;;3.80;98.00;;;;;;6245971;23;20032;-81
2021/11/05 06:29:24;;;;;;;4.20;2.22;;;3.90;98.00;;;;;;6246669;23;20012;-81
2021/11/05 06:31:50;;;;;;;3.75;1.90;;;3.80;98.00;;;;;;6247385;23;20004;-81
2021/11/05 06:34:16;;;;;;;3.60;1.95;;;3.90;98.00;;;;;;6245411;22;20027;-80
2021/11/05 06:36:41;;;;;;;3.25;1.90;;;3.80;98.00;;;;;;6246165;23;20385;-80
2021/11/05 06:39:07;;;;;;;4.20;1.83;;;3.80;98.00;;;;;;6247443;23;20000;-79
2021/11/05 06:41:33;;;;;;;3.90;2.00;;;3.90;98.00;;;;;;6245895;23;20011;-79
2021/11/05 06:43:59;;;;;;;2.83;1.60;;;3.90;98.00;;;;;;6248266;23;20000;-78
2021/11/05 06:46:25;;;;;;;3.25;1.70;;;3.90;98.00;;;;;;6249025;23;20015;-80
2021/11/05 06:48:51;;;;;;;3.58;1.77;;;3.90;98.00;;;;;;6248696;23;20004;-79
2021/11/05 06:51:17;;;;;;;3.05;1.75;;;3.90;98.00;;;;;;6249288;23;20004;-80
2021/11/05 06:53:43;;;;;;;3.47;1.85;;;4.00;98.00;;;;;;6222482;23;20034;-80
2021/11/05 06:56:09;;;;;;;4.60;2.10;;;4.00;98.00;;;;;;6221051;23;20008;-80
2021/11/05 06:58:36;;;;;;;3.78;2.10;;;4.00;98.00;;;;;;6248635;23;20008;-80
2021/11/05 07:01:03;;;;;;;3.80;1.80;;;4.00;98.00;;;;;;6248947;23;20075;-81
2021/11/05 07:03:29;;;;;;;3.13;1.50;;;4.10;98.00;;;;;;6221738;23;20401;-80
2021/11/05 07:05:55;;;;;;;3.60;1.88;;;4.10;98.00;;;;;;6248966;23;20016;-79
2021/11/05 07:08:20;;;;;;;4.30;1.92;;;4.10;98.00;;;;;;6248879;23;20008;-80
2021/11/05 07:10:47;;;;;;;3.10;1.80;;;4.20;98.00;;;;;;6247320;23;20027;-79
2021/11/05 07:13:13;;;;;;;4.72;1.90;;;4.30;98.00;;;;;;6222143;23;20393;-80
2021/11/05 07:15:39;;;;;;;3.72;2.20;;;4.30;98.00;;;;;;6248577;23;20004;-80
2021/11/05 07:18:05;;;;;;;4.53;2.33;;;4.30;98.00;;;;;;6248144;23;20008;-79
2021/11/05 07:20:33;;;;;;;4.28;2.30;;;4.40;98.00;;;;;;6248005;22;20278;-82
2021/11/05 07:22:59;;;;;;;5.47;2.50;;;4.40;98.00;;;;;;6248968;23;20007;-80
2021/11/05 07:25:25;;;;;;;4.75;2.00;;;4.50;98.00;;;;;;6247053;23;20010;-80
2021/11/05 07:27:51;;;;;;;4.63;2.10;;;4.60;98.00;;;;;;6248633;23;19999;-80
2021/11/05 07:30:17;;;;;;;3.47;1.88;;;4.70;98.00;;;;;;6248187;23;20031;-80
2021/11/05 07:32:47;;;;;;;4.60;2.38;;;4.70;98.00;;;;;;6248390;23;19996;-80
2021/11/05 07:35:19;;;;;;;5.05;2.28;;;4.80;98.00;;;;;;6222016;23;20265;-80
2021/11/05 07:37:45;;;;;;;3.38;2.00;;;4.90;98.00;;;;;;6248532;23;20008;-82
2021/11/05 07:40:12;;;;;;;3.65;1.85;;;4.90;98.00;;;;;;6249668;23;20004;-80
2021/11/05 07:42:39;;;;;;;3.67;2.20;;;4.90;98.00;;;;;;6221501;23;20004;-79
2021/11/05 07:45:07;;;;;;;4.88;2.78;;;5.00;98.00;;;;;;6249488;23;20026;-81
2021/11/05 07:47:33;;;;;;;4.97;2.72;;;5.00;98.00;;;;;;6250036;23;20000;-79
2021/11/05 07:49:59;;;;;;;5.60;2.88;;;5.00;98.00;;;;;;6248904;23;20062;-80
2021/11/05 07:52:25;;;;;;;5.05;2.70;;;4.90;98.00;;;;;;6248201;23;20732;-80
2021/11/05 07:54:51;;;;;;;5.00;2.55;;;5.00;98.00;;;;;;6248579;23;20000;-80
2021/11/05 07:57:17;;;;;;;7.25;3.75;;;5.00;98.00;;;;;;6220023;23;20008;-79
2021/11/05 07:59:42;;;;;;;6.00;3.25;;;5.10;98.00;;;;;;6248349;23;20392;-78
2021/11/05 08:02:08;;;;;;;4.68;2.60;;;5.00;98.00;;;;;;6247924;23;20066;-80
2021/11/05 08:04:35;;;;;;;6.55;3.30;;;5.00;98.00;;;;;;6221864;23;20265;-80
2021/11/05 08:07:00;;;;;;;5.85;3.40;;;5.10;98.00;;;;;;6221701;23;20051;-80
2021/11/05 08:09:26;;;;;;;11.70;6.15;;;5.20;98.00;;;;;;6221494;23;20008;-80
2021/11/05 08:11:51;;;;;;;8.10;4.05;;;5.20;98.00;;;;;;6246817;23;20000;-80
2021/11/05 08:14:17;;;;;;;7.30;4.45;;;5.20;98.00;;;;;;6221848;23;20007;-80
2021/11/05 08:16:43;;;;;;;4.85;2.50;;;5.20;98.00;;;;;;6248182;23;19996;-80
2021/11/05 08:19:08;;;;;;;5.03;3.05;;;5.30;98.00;;;;;;6247956;23;20088;-80
2021/11/05 08:21:34;;;;;;;8.07;3.80;;;5.30;98.00;;;;;;6248264;23;20107;-79
2021/11/05 08:24:00;;;;;;;13.60;5.07;;;5.30;98.00;;;;;;6247940;23;20000;-82
2021/11/05 08:26:26;;;;;;;5.07;2.80;;;5.40;98.00;;;;;;6246332;23;20005;-80
2021/11/05 08:28:53;;;;;;;5.88;3.15;;;5.50;98.00;;;;;;6247930;23;20007;-80
2021/11/05 08:31:19;;;;;;;5.30;2.90;;;5.60;98.00;;;;;;6247997;23;20239;-79
2021/11/05 08:33:46;;;;;;;5.45;3.05;;;5.60;98.00;;;;;;6221824;23;20007;-80
2021/11/05 08:36:14;;;;;;;5.20;2.90;;;5.60;98.00;;;;;;6248076;23;20035;-81
2021/11/05 08:38:41;;;;;;;5.75;2.80;;;5.70;98.00;;;;;;6221345;23;20008;-80
2021/11/05 08:41:08;;;;;;;6.25;4.30;;;5.60;98.00;;;;;;6246257;23;20064;-79
2021/11/05 08:43:34;;;;;;;8.27;4.28;;;5.70;98.00;;;;;;6247679;23;20004;-81
2021/11/05 08:46:02;;;;;;;6.63;3.50;;;5.70;98.00;;;;;;6221656;23;20095;-80
2021/11/05 08:48:29;;;;;;;6.03;3.00;;;5.70;98.00;;;;;;6247906;23;20035;-81
2021/11/05 08:50:58;;;;;;;5.63;3.05;;;5.70;98.00;;;;;;6221382;23;20055;-80
2021/11/05 08:53:23;;;;;;;5.55;3.17;;;5.60;98.00;;;;;;6220769;23;20012;-79
2021/11/05 08:55:49;;;;;;;10.50;4.80;;;5.70;98.00;;;;;;6246148;23;20374;-78
2021/11/05 08:58:15;;;;;;;6.90;3.83;;;5.80;98.00;;;;;;6220560;23;20012;-79
2021/11/05 09:00:41;;;;;;;6.70;4.10;;;5.90;98.00;;;;;;6247863;23;20071;-79
2021/11/05 09:03:07;;;;;;;5.80;3.47;;;6.10;98.00;;;;;;6247295;23;20000;-81
2021/11/05 09:05:35;;;;;;;7.55;4.10;;;6.10;98.00;;;;;;6219790;23;20009;-79
2021/11/05 09:08:04;;;;;;;18.10;7.80;;;6.00;98.00;;;;;;6246299;23;20004;-80
2021/11/05 09:10:31;;;;;;;10.15;5.45;;;6.10;98.00;;;;;;6244192;23;20468;-80
2021/11/05 09:12:57;;;;;;;6.80;3.70;;;6.20;98.00;;;;;;6219246;23;20083;-80
2021/11/05 09:15:25;;;;;;;6.50;4.03;;;6.10;98.00;;;;;;6245640;23;20007;-80
2021/11/05 09:17:54;;;;;;;6.85;4.47;;;6.00;98.00;;;;;;6246299;23;20362;-79
2021/11/05 09:20:20;;;;;;;7.72;4.72;;;6.00;98.00;;;;;;6246265;23;20004;-80
2021/11/05 09:22:46;;;;;;;8.30;5.18;;;5.90;98.00;;;;;;6246464;23;20004;-80
2021/11/05 09:25:12;;;;;;;10.15;5.95;;;5.80;98.00;;;;;;6246210;23;20015;-79
2021/11/05 09:27:38;;;;;;;12.77;8.18;;;5.80;98.00;;;;;;6245474;23;20004;-79
2021/11/05 09:30:08;;;;;;;9.15;6.07;;;5.70;98.00;;;;;;6246382;23;20008;-77
2021/11/05 09:32:37;;;;;;;8.02;5.53;;;5.70;98.00;;;;;;6220018;23;20023;-79
2021/11/05 09:35:06;;;;;;;8.75;5.95;;;5.70;98.00;;;;;;6246112;23;19996;-80
2021/11/05 09:37:31;;;;;;;10.25;5.38;;;5.70;98.00;;;;;;6246211;23;19997;-78
2021/11/05 09:39:57;;;;;;;11.23;6.72;;;5.80;98.00;;;;;;6246673;23;20259;-78
2021/11/05 09:42:23;;;;;;;11.18;7.57;;;5.80;98.00;;;;;;6244300;23;20007;-80
2021/11/05 09:44:49;;;;;;;9.30;5.63;;;6.00;98.00;;;;;;6219674;23;20004;-79
2021/11/05 09:47:15;;;;;;;8.18;5.57;;;6.10;98.00;;;;;;6245139;23;20000;-79
2021/11/05 09:49:44;;;;;;;7.50;5.18;;;6.20;98.00;;;;;;6246448;23;20092;-79
2021/11/05 09:52:09;;;;;;;8.52;5.18;;;6.40;98.00;;;;;;6246311;23;20070;-79
2021/11/05 09:54:38;;;;;;;9.95;5.40;;;6.50;98.00;;;;;;6246358;23;20008;-79
2021/11/05 09:57:05;;;;;;;27.05;12.38;;;6.60;98.00;;;;;;6244619;23;20004;-79
2021/11/05 09:59:31;;;;;;;8.88;4.53;;;6.80;98.00;;;;;;6246397;23;20073;-79
2021/11/05 10:01:57;;;;;;;7.40;4.75;;;6.90;98.00;;;;;;6220275;23;20008;-79
2021/11/05 10:04:23;;;;;;;8.43;5.25;;;6.90;98.00;;;;;;6218976;23;20382;-79
2021/11/05 10:07:02;;;;;;;9.32;5.40;;;7.00;98.00;;;;;;6246362;23;20027;-79
2021/11/05 10:09:38;;;;;;;8.68;5.03;;;7.10;98.00;;;;;;6245222;23;20012;-78
2021/11/05 10:12:12;;;;;;;9.40;6.03;;;7.20;98.00;;;;;;6217423;23;20141;-80
2021/11/05 10:14:39;;;;;;;9.15;5.60;;;7.20;98.00;;;;;;6218497;23;20093;-79
2021/11/05 10:17:09;;;;;;;8.73;5.50;;;7.00;98.00;;;;;;6245131;23;20000;-79
2021/11/05 10:19:56;;;;;;;8.52;4.97;;;6.80;98.00;;;;;;6249673;23;20006;-78
2021/11/05 10:22:46;;;;;;;8.90;5.75;;;6.60;98.00;;;;;;6249706;23;20058;-79
2021/11/05 10:25:17;;;;;;;10.15;5.60;;;6.60;98.00;;;;;;6249634;23;20000;-79
2021/11/05 10:27:44;;;;;;;8.45;5.82;;;6.60;98.00;;;;;;6223197;23;20270;-79
2021/11/05 10:30:10;;;;;;;8.98;5.40;;;6.70;98.00;;;;;;6249924;23;20015;-80
2021/11/05 10:32:40;;;;;;;9.20;6.35;;;6.70;98.00;;;;;;6223229;23;20026;-79
2021/11/05 10:35:21;;;;;;;8.85;5.78;;;6.80;98.00;;;;;;6250150;23;20007;-78
2021/11/05 10:37:51;;;;;;;15.32;8.07;;;6.70;98.00;;;;;;6249777;23;20028;-80
2021/11/05 10:40:18;;;;;;;21.38;8.77;;;6.70;98.00;;;;;;6248747;23;20011;-78
2021/11/05 10:42:46;;;;;;;13.65;7.40;;;6.70;98.00;;;;;;6250639;23;20309;-79
2021/11/05 10:45:18;;;;;;;12.98;6.65;;;6.90;98.00;;;;;;6224111;23;20019;-78
2021/11/05 10:47:53;;;;;;;16.27;7.78;;;7.00;98.00;;;;;;6223347;23;20091;-79
2021/11/05 10:50:23;;;;;;;25.27;11.50;;;7.20;98.00;;;;;;6248803;23;20082;-78
2021/11/05 10:53:15;;;;;;;19.48;8.60;;;7.40;98.00;;;;;;6223537;23;20005;-79
2021/11/05 10:56:04;;;;;;;6.35;3.92;;;7.50;98.00;;;;;;6221909;23;20000;-79
2021/11/05 10:58:42;;;;;;;5.70;3.80;;;7.50;98.00;;;;;;6249907;23;20004;-79
2021/11/05 11:01:16;;;;;;;7.25;3.88;;;7.30;98.00;;;;;;6250248;23;20008;-79
2021/11/05 11:03:55;;;;;;;7.32;4.30;;;7.10;98.00;;;;;;6250268;23;20027;-79
2021/11/05 11:06:27;;;;;;;6.15;3.75;;;6.90;98.00;;;;;;6223014;23;20645;-79
2021/11/05 11:08:59;;;;;;;6.72;3.95;;;7.00;98.00;;;;;;6222811;23;20031;-79
2021/11/05 11:11:31;;;;;;;7.00;4.63;;;6.80;98.00;;;;;;6248715;23;20008;-78
2021/11/05 11:14:03;;;;;;;7.65;4.57;;;6.80;98.00;;;;;;6223477;23;20126;-78
2021/11/05 11:16:33;;;;;;;8.32;4.38;;;6.60;98.00;;;;;;6249791;23;20004;-79
2021/11/05 11:19:05;;;;;;;7.63;5.20;;;6.50;98.00;;;;;;6249769;23;20079;-79
2021/11/05 11:21:35;;;;;;;8.85;5.40;;;6.50;98.00;;;;;;6223137;23;20000;-78
2021/11/05 11:24:05;;;;;;;9.13;5.53;;;6.80;98.00;;;;;;6248737;23;20000;-78
2021/11/05 11:26:31;;;;;;;8.13;4.85;;;7.00;98.00;;;;;;6219442;23;20004;-79
2021/11/05 11:28:57;;;;;;;7.60;4.47;;;7.20;98.00;;;;;;6248122;23;20004;-80
2021/11/05 11:31:23;;;;;;;8.07;4.22;;;7.60;98.00;;;;;;6248828;23;20362;-79
2021/11/05 11:33:50;;;;;;;11.10;5.38;;;8.00;98.00;;;;;;6248685;23;20119;-78
2021/11/05 11:36:19;;;;;;;6.32;3.63;;;8.40;98.00;;;;;;6222276;23;20054;-80
2021/11/05 11:38:49;;;;;;;6.20;4.05;;;8.50;98.00;;;;;;6249405;23;20004;-79
2021/11/05 11:41:15;;;;;;;7.00;4.10;;;8.50;98.00;;;;;;6221013;23;20000;-79
2021/11/05 11:43:41;;;;;;;5.75;3.60;;;8.70;98.00;;;;;;6249939;23;20261;-79
2021/11/05 11:46:07;;;;;;;5.93;3.03;;;8.90;97.00;;;;;;6223233;23;20397;-80
2021/11/05 11:48:47;;;;;;;7.32;3.97;;;9.30;96.90;;;;;;6223146;23;20095;-79
2021/11/05 11:51:25;;;;;;;6.80;3.85;;;9.60;95.40;;;;;;6223402;23;20014;-79
2021/11/05 11:54:00;;;;;;;5.43;2.90;;;9.90;95.10;;;;;;6249646;23;20007;-79
2021/11/05 11:56:29;;;;;;;6.22;3.13;;;10.10;92.50;;;;;;6248024;23;20007;-79
2021/11/05 11:59:07;;;;;;;8.02;3.75;;;10.30;91.80;;;;;;6223036;23;20036;-79
2021/11/05 12:01:37;;;;;;;4.82;2.47;;;10.80;92.20;;;;;;6249893;23;20079;-79
2021/11/05 12:04:07;;;;;;;4.75;2.70;;;10.60;91.00;;;;;;6249489;23;20008;-79
2021/11/05 12:06:53;;;;;;;5.35;3.00;;;10.50;91.00;;;;;;6249395;23;20274;-79
2021/11/05 12:09:32;;;;;;;5.00;2.70;;;9.90;91.20;;;;;;6222542;23;20310;-80
2021/11/05 12:12:23;;;;;;;3.85;2.20;;;10.10;92.50;;;;;;6221349;23;20358;-80
2021/11/05 12:15:01;;;;;;;6.07;3.60;;;10.40;93.00;;;;;;6223205;23;20000;-79
2021/11/05 12:17:27;;;;;;;5.53;3.15;;;10.40;90.80;;;;;;6249439;23;19996;-79
2021/11/05 12:19:59;;;;;;;3.92;2.03;;;10.30;91.60;;;;;;6223009;23;20432;-79
2021/11/05 12:22:25;;;;;;;6.18;3.00;;;10.20;91.70;;;;;;6249324;23;20004;-79
2021/11/05 12:24:51;;;;;;;5.15;3.08;;;10.00;91.50;;;;;;6249432;23;20011;-78
2021/11/05 12:27:25;;;;;;;9.50;5.60;;;9.50;92.70;;;;;;6247862;23;20024;-78
2021/11/05 12:29:54;;;;;;;6.80;3.78;;;9.20;93.90;;;;;;6249493;23;20075;-78
2021/11/05 12:32:20;;;;;;;6.00;3.47;;;9.00;95.00;;;;;;6248475;23;20030;-78
2021/11/05 12:35:06;;;;;;;6.88;4.18;;;8.80;95.50;;;;;;6222200;23;20028;-78
2021/11/05 12:37:54;;;;;;;5.18;3.05;;;8.50;96.00;;;;;;6246864;23;20454;-79
2021/11/05 12:40:34;;;;;;;7.18;4.10;;;8.50;96.20;;;;;;6220026;23;20270;-79
2021/11/05 12:43:22;;;;;;;5.00;2.70;;;8.50;97.10;;;;;;6249328;23;20000;-79
2021/11/05 12:45:52;;;;;;;5.57;2.70;;;8.80;96.90;;;;;;6247148;23;20008;-80
2021/11/05 12:48:39;;;;;;;5.93;2.85;;;9.20;96.20;;;;;;6222219;23;20011;-79
2021/11/05 12:51:06;;;;;;;5.68;2.72;;;9.20;95.80;;;;;;6247983;23;19996;-79
2021/11/05 12:53:32;;;;;;;6.63;3.08;;;9.20;95.00;;;;;;6221698;23;20004;-79
2021/11/05 12:55:59;;;;;;;6.18;3.35;;;9.20;95.00;;;;;;6220732;23;20054;-79
2021/11/05 12:58:30;;;;;;;5.07;2.80;;;9.30;94.70;;;;;;6221707;23;20008;-79